Minier, IL (61759)

11:47 PM CDT on May 26, 2015 (GMT -0500)
Uptown Stanford | | Change Station
CLOSE
Current Station
Personal Weather Station
Location: Stanford, IL
Elevation: 699 ft
Nearby Weather Stations

Elev 699 ft 40.43 °N, 89.22 °W | Updated 14 minutes ago

Overcast
Overcast
67.8 °F
Feels Like 67.8 °F
N
9.9
Wind Variable Wind from SW

Today
High -- | Low -- °F
--% Chance of Precip.
Yesterday
High -- | Low -- °F
Precip. -- in
5:32 AM 8:16 PM
Waxing Gibbous, 64% visible
Pressure 29.91 in
Visibility 10.0 miles
Clouds Scattered Clouds 4700 ft
Scattered Clouds 5000 ft
Mostly Cloudy 9500 ft
Dew Point 65 °F
Humidity 92%
Rainfall 0.28 in
Snow Depth Not available.
UV 0 out of 12
Pollen 6.90 out of 12
Air Quality Not available.
Flu Activity Sporadic
METAR KAAA 270435Z AUTO 19005KT 10SM SCT047 SCT050 BKN095 21/17 A2991 RMK AO2 T02100169

More Conditions Fewer Conditions

Pressure 29.91 in
Visibility 10.0 miles
Clouds Scattered Clouds 4700 ft
Scattered Clouds 5000 ft
Mostly Cloudy 9500 ft
Dew Point 65 °F
Humidity 92%
Rainfall 0.28 in
Snow Depth Not available.
UV 0 out of 12
Pollen 6.90 out of 12
Air Quality Not available.
Flu Activity Sporadic
METAR KAAA 270435Z AUTO 19005KT 10SM SCT047 SCT050 BKN095 21/17 A2991 RMK AO2 T02100169

More Conditions Fewer Conditions

10-Day Weather Forecast

Almanac

Astronomy

May. 26, 2015 Rise Set
Actual Time
Civil Twilight
Nautical Twilight
Astronomical Twilight
Moon
Length of Visible Light
Length of Day
Tomorrow will be .
, % of the Moon is Illuminated

Today's Extremes

State Highs State Lows

Community

WunderPhotos

Upload Photos

1,824,615 photos uploaded!

WunderBlogs® & News

Nearby

Air Quality

  Air Quality AQ Index Pollutant
Not available.

Snow Depth

Station Depth Elevation

Earthquake Activity

City Distance Mag. Time & Date
Minimum magnitude displayed is 2.5.

Coastal Water Temperatures

Place Temperature

Stations

Nearby Weather Stations

Station Location Temp. Windchill Dew Point Humidity Wind Precip. Elev Updated Type